EDDM/MUC METAR and TAF weather

Enter ICAO airport designator
Station Type Date Time Source
EDDM METAR 2018/10/21 05:20 UTC NOAA

EDDM 210520Z VRB01KT 9999 FEW042 06/05 Q1027 NOSIG


Station Type Date Time Source
EDDM Decoded METAR 2018/10/21 05:20 UTC NOAA

Munchen, Germany (EDDM) 48-21N 011-47E
Oct 21, 2018 - 01:20 AM EDT / 2018.10.21 0520 UTC
Wind: Variable at 1 MPH (1 KT):0
Visibility: greater than 7 mile(s):0
Sky conditions: mostly clear
Temperature: 42 F (6 C)
Dew Point: 41 F (5 C)
Relative Humidity: 93%
Pressure (altimeter): 30.33 in. Hg (1027 hPa)
ob: EDDM 210520Z VRB01KT 9999 FEW042 06/05 Q1027 NOSIG
cycle: 5

Station Type Date Time Source
EDDM TAF 2018/10/21 06:27 UTC NOAA

TAF EDDM 210500Z 2106/2212 36003KT 9999 SCT035
BECMG 2109/2112 06007KT
BECMG 2117/2120 06002KT
TEMPO 2200/2207 2000 BCFG


Example: see airport list